Latest Weather Observations for Gabo Island

IDV60801

Issued at 3:42 pm EDT Saturday 19 January 2019 (issued every 10 minutes, with the page automatically refreshed every 10 minutes)

About weather observations | Map of weather stations | Latest weather observations for VIC | Other Formats
Station Details ID: 084016 Name: GABO ISLAND LIGHTHOUSE Lat: -37.57 Lon: 149.92 Height: 15.2 m
Data from the previous 72 hours. | See also: Recent months at Gabo Island
Date/Time
EDT
Temp
°C
App
Temp
°C
Dew
Point
°C
Rel
Hum
%
Delta-T
°C
Wind Press
QNH
hPa
Press
MSL
hPa
Rain since
9am
mm
Dir  Spd
km/h
Gust
km/h
Spd
kts
Gust
kts
19/03:30pm 19.8 12.5 13.3 66 3.7 SSW 44 52 24 28 1019.1 - 0.0
19/03:00pm 19.8 12.0 12.9 64 3.9 SSW 46 56 25 30 1019.0 - 0.0
19/02:30pm 19.6 11.5 12.0 61 4.2 SSW 46 54 25 29 1019.1 - 0.0
19/02:00pm 19.7 11.7 12.4 62 4.1 SW 46 52 25 28 1019.2 - 0.0
19/01:30pm 19.5 12.1 12.5 64 3.9 SW 43 52 23 28 1019.1 - 0.0
19/01:00pm 19.6 12.5 13.3 67 3.6 SW 43 50 23 27 1019.1 - 0.0
19/12:30pm 19.3 12.3 13.7 70 3.2 SW 43 52 23 28 1019.3 - 0.0
19/12:00pm 19.2 12.9 13.4 69 3.3 SW 39 46 21 25 1019.3 1019.2 0.0
19/11:30am 19.5 11.3 12.9 65 3.7 SW 48 56 26 30 1018.9 - 0.0
19/11:00am 19.1 12.3 13.1 68 3.4 SW 41 50 22 27 1018.9 - 0.0
19/10:30am 19.0 11.8 13.0 68 3.4 SW 43 52 23 28 1018.9 - 0.0
19/10:00am 19.1 11.1 12.5 65 3.7 SW 46 57 25 31 1018.3 - 0.0
19/09:30am 19.2 13.0 13.8 71 3.1 SW 39 46 21 25 1018.3 - 0.0
19/09:00am 19.2 13.8 14.9 76 2.5 SW 37 44 20 24 1018.0 1017.9 0.6
19/08:30am 19.0 14.0 15.1 78 2.3 WSW 35 43 19 23 1017.7 - 0.6
19/08:00am 18.3 11.6 15.0 81 1.9 WSW 44 56 24 30 1017.3 - 0.6
19/07:30am 18.1 11.7 15.5 85 1.5 SW 43 54 23 29 1017.0 - 0.6
19/07:06am 18.8 13.5 15.2 79 2.1 SW 37 56 20 30 1016.6 - 0.6
19/07:00am 18.7 14.2 15.3 80 2.0 WSW 33 39 18 21 1016.5 - 0.6
19/06:30am 18.8 12.8 15.4 80 2.0 SW 41 46 22 25 1016.0 - 0.6
19/06:00am 19.0 14.0 15.1 78 2.3 WSW 35 46 19 25 1015.7 1015.6 0.6
19/05:30am 18.9 14.7 14.6 76 2.5 WSW 30 41 16 22 1015.2 - 0.6
19/05:00am 18.9 14.8 15.0 78 2.3 WSW 30 35 16 19 1014.6 - 0.6
19/04:30am 19.0 15.1 15.4 79 2.1 WSW 30 35 16 19 1014.4 - 0.6
19/04:00am 18.9 15.0 16.4 85 1.5 SW 32 37 17 20 1014.1 - 0.6
19/03:30am 19.0 15.2 16.7 86 1.4 SW 32 35 17 19 1014.3 - 0.6
19/03:00am 19.2 14.8 16.7 85 1.5 SW 35 41 19 22 1013.9 1013.9 0.6
19/02:30am 19.3 15.3 16.8 85 1.5 SW 33 39 18 21 1013.9 - 0.6
19/02:00am 19.5 15.8 17.0 85 1.5 SW 32 37 17 20 1014.3 - 0.6
19/01:30am 19.7 15.3 17.6 88 1.3 SW 37 43 20 23 1014.1 - 0.6
19/01:00am 19.8 16.5 18.0 89 1.1 WSW 32 39 17 21 1014.3 - 0.6
19/12:30am 19.9 16.3 18.5 92 0.9 SW 35 41 19 22 1013.7 - 0.6
19/12:00am 21.7 18.0 18.3 81 2.1 WSW 35 50 19 27 1012.4 1012.4 0.6
 
Date/Time
EDT
Temp
°C
App
Temp
°C
Dew
Point
°C
Rel
Hum
%
Delta-T
°C
Wind Press
QNH
hPa
Press
MSL
hPa
Rain since
9am
mm
Dir  Spd
km/h
Gust
km/h
Spd
kts
Gust
kts
18/11:57pm 21.5 17.5 18.5 83 1.9 WSW 37 50 20 27 1012.5 - 0.6
18/11:30pm 22.4 23.3 18.4 78 2.5 NW 11 32 6 17 1011.1 - 0.6
18/11:00pm 20.9 18.1 18.2 84 1.7 NE 30 35 16 19 1010.4 - 0.6
18/10:30pm 23.5 22.1 17.9 71 3.5 N 22 33 12 18 1011.0 - 0.6
18/10:00pm 22.7 21.6 18.7 78 2.5 N 22 30 12 16 1010.5 - 0.6
18/09:30pm 20.4 19.1 19.9 97 0.3 NNE 26 30 14 16 1009.9 - 0.6
18/09:00pm 20.7 20.7 20.2 97 0.3 NNE 20 22 11 12 1010.1 1010.1 0.6
18/08:30pm 21.2 22.4 20.6 96 0.4 N 15 20 8 11 1011.2 - 0.4
18/08:00pm 20.9 18.6 20.1 95 0.5 NE 32 39 17 21 1011.7 - 0.4
18/07:30pm 20.3 17.5 19.5 95 0.5 NE 33 41 18 22 1010.8 - 0.4
18/07:00pm 20.5 20.2 19.6 95 0.6 ENE 20 22 11 12 1010.8 - 0.2
18/06:30pm 21.4 21.6 20.2 93 0.8 E 19 24 10 13 1009.4 - 0.0
18/06:00pm 21.4 22.9 19.7 90 1.1 ENE 11 13 6 7 1008.2 1008.2 0.0
18/05:30pm 21.1 18.8 19.4 90 1.1 ENE 30 33 16 18 1007.7 - 0.0
18/05:00pm 22.5 23.1 19.5 83 1.9 NE 15 20 8 11 1009.0 - 0.0
18/04:30pm 25.5 24.6 18.1 63 4.7 N 20 26 11 14 1008.7 - 0.0
18/04:00pm 24.8 21.8 18.7 69 3.9 NNE 32 35 17 19 1007.7 - 0.0
18/03:30pm 23.7 20.3 19.0 75 3.0 NE 35 39 19 21 1007.9 - 0.0
18/03:00pm 23.4 20.0 18.1 72 3.3 NE 33 37 18 20 1008.2 1008.2 0.0
18/02:30pm 23.5 20.7 18.3 72 3.3 NE 30 33 16 18 1008.6 - 0.0
18/02:00pm 24.1 21.4 18.4 70 3.6 NE 30 33 16 18 1008.7 - 0.0
18/01:30pm 23.6 22.8 18.4 72 3.3 NE 20 24 11 13 1009.1 - 0.0
18/01:00pm 24.3 24.9 18.6 70 3.6 NE 13 17 7 9 1009.8 - 0.0
18/12:30pm 26.9 28.6 19.3 63 4.9 NE 9 11 5 6 1009.9 - 0.0
18/12:00pm 28.4 29.2 18.2 54 6.5 WNW 11 13 6 7 1010.4 1010.3 0.0
18/11:30am 26.5 28.3 19.5 65 4.5 NW 9 13 5 7 1010.7 - 0.0
18/11:00am 24.9 24.1 18.1 66 4.3 WNW 19 24 10 13 1011.5 - 0.0
18/10:30am 25.4 23.6 17.0 59 5.2 WNW 22 28 12 15 1010.8 - 0.0
18/10:00am 27.3 26.4 16.9 53 6.5 W 17 20 9 11 1009.7 - 0.0
18/09:30am 26.3 27.3 17.7 59 5.4 WNW 9 11 5 6 1009.9 - 0.0
18/09:00am 26.4 26.3 16.9 56 5.9 W 13 19 7 10 1010.3 1010.2 0.0
18/08:30am 24.4 23.6 17.1 63 4.5 W 17 22 9 12 1011.0 - 0.0
18/08:00am 23.4 22.7 16.5 65 4.2 W 15 19 8 10 1010.6 - 0.0
18/07:30am 22.3 21.7 17.6 75 2.9 W 17 20 9 11 1009.4 - 0.0
18/07:00am 22.8 23.9 18.0 74 3.0 W 9 13 5 7 1008.6 - 0.0
18/06:30am 21.4 22.9 18.0 81 2.1 SW 7 9 4 5 1009.9 - 0.0
18/06:00am 23.0 23.4 17.3 70 3.5 N 11 13 6 7 1009.0 1009.5 0.0
18/05:30am 23.1 22.9 17.5 70 3.5 N 15 19 8 10 1008.4 - 0.0
18/05:00am 21.5 20.3 17.4 77 2.5 NNE 20 26 11 14 1007.8 - 0.0
18/04:30am 22.5 22.7 15.7 65 4.1 NNE 9 19 5 10 1008.1 - 0.0
18/04:00am 24.2 24.6 16.2 61 4.9 SW 9 11 5 6 1008.1 - 0.0
18/03:30am 25.6 25.5 15.0 52 6.4 N 9 13 5 7 1008.2 - 0.0
18/03:00am 22.3 22.7 16.4 69 3.6 NNE 9 11 5 6 1008.7 1008.6 0.0
18/02:30am 22.1 22.4 16.0 68 3.7 ENE 9 13 5 7 1009.0 - 0.0
18/02:00am 25.4 24.3 15.3 53 6.1 N 15 19 8 10 1009.2 - 0.0
18/01:30am 22.1 22.7 17.6 75 2.8 N 11 13 6 7 1009.6 - 0.0
18/01:00am 21.6 21.7 17.4 77 2.6 NNE 13 15 7 8 1009.9 - 0.0
18/12:30am 21.3 21.7 17.2 77 2.5 NNE 11 15 6 8 1010.4 - 0.0
18/12:00am 22.2 22.9 18.0 77 2.6 NNE 11 13 6 7 1010.6 1010.5 0.0
 
Date/Time
EDT
Temp
°C
App
Temp
°C
Dew
Point
°C
Rel
Hum
%
Delta-T
°C
Wind Press
QNH
hPa
Press
MSL
hPa
Rain since
9am
mm
Dir  Spd
km/h
Gust
km/h
Spd
kts
Gust
kts
17/11:30pm 22.5 23.4 18.5 78 2.5 N 11 13 6 7 1010.6 - 0.0
17/11:00pm 21.8 23.0 19.1 84 1.7 NNE 11 13 6 7 1010.6 - 0.0
17/10:30pm 21.7 21.3 19.0 84 1.7 NNE 19 26 10 14 1010.2 - 0.0
17/10:00pm 20.9 20.0 18.3 85 1.6 NNE 20 24 11 13 1010.0 - 0.0
17/09:30pm 21.9 21.4 19.9 88 1.3 N 22 30 12 16 1009.9 - 0.0
17/09:00pm 22.0 22.5 20.1 89 1.2 NNE 17 22 9 12 1009.9 1009.9 0.0
17/08:30pm 22.6 24.8 20.4 87 1.4 N 9 13 5 7 1010.3 - 0.0
17/08:00pm 22.3 22.8 20.1 87 1.4 N 17 20 9 11 1009.7 - 0.0
17/07:30pm 23.0 22.5 20.7 87 1.5 N 24 32 13 17 1009.2 - 0.0
17/07:00pm 22.6 22.9 20.3 87 1.5 NNE 19 24 10 13 1009.1 - 0.0
17/06:30pm 22.0 20.3 17.3 74 2.9 NE 22 24 12 13 1008.4 - 0.0
17/06:00pm 23.7 26.5 18.8 74 3.1 W 2 0 1 0 1008.7 1008.5 0.0
17/05:30pm 23.4 26.0 18.5 74 3.1 SW 2 11 1 6 1008.8 - 0.0
17/05:00pm 24.9 26.3 19.6 72 3.4 NW 11 19 6 10 1009.0 - 0.0
17/04:30pm 22.4 22.4 19.7 85 1.7 NNE 19 24 10 13 1008.5 - 0.0
17/04:00pm 22.5 22.8 19.5 83 1.9 NNE 17 22 9 12 1008.8 - 0.0
17/03:30pm 22.5 22.1 19.0 80 2.2 NNE 19 22 10 12 1008.5 - 0.0
17/03:00pm 22.1 20.7 18.9 82 2.0 NE 24 30 13 16 1008.2 1008.1 0.0
17/02:30pm 24.0 23.3 19.5 76 2.9 NNE 22 28 12 15 1008.2 - 0.0
17/02:00pm 23.1 21.9 19.3 79 2.4 NNE 24 28 13 15 1007.9 - 0.0
17/01:30pm 22.9 21.8 19.5 81 2.2 NNE 24 28 13 15 1008.2 - 0.0
17/01:00pm 22.1 20.7 18.9 82 2.0 NNE 24 26 13 14 1008.2 - 0.0
17/12:30pm 22.0 19.8 18.8 82 2.0 NNE 28 32 15 17 1008.2 - 0.0
17/12:00pm 22.5 19.7 18.2 76 2.7 NNE 30 32 16 17 1008.4 1008.3 0.0
17/11:30am 22.9 20.4 18.1 74 3.0 NNE 28 35 15 19 1008.4 - 0.0
17/11:00am 22.7 20.7 18.4 76 2.7 NNE 26 30 14 16 1008.2 - 0.0
17/10:30am 23.5 21.8 18.9 75 2.9 NNE 26 32 14 17 1008.9 - 0.0
17/10:00am 20.9 19.7 18.5 86 1.5 NNE 22 28 12 15 1008.9 - 0.0
17/09:30am 20.6 19.0 18.4 87 1.4 NE 24 32 13 17 1009.1 - 0.0
17/09:00am 21.0 19.4 18.4 85 1.6 NE 24 26 13 14 1009.1 1008.8 0.0
17/08:30am 20.6 18.3 18.4 87 1.4 NE 28 32 15 17 1008.9 - 0.0
17/08:00am 20.7 16.8 17.8 83 1.8 NE 35 39 19 21 1008.4 - 0.0
17/07:30am 20.7 17.4 16.9 79 2.3 NE 30 32 16 17 1008.6 - 0.0
17/07:00am 21.1 18.3 17.4 79 2.3 NNE 28 32 15 17 1008.7 - 0.0
17/06:30am 20.5 17.6 17.1 81 2.1 NNE 28 32 15 17 1008.7 - 0.0
17/06:00am 20.3 17.3 16.8 80 2.1 NNE 28 32 15 17 1008.7 1008.6 0.0
17/05:30am 20.7 18.2 17.1 80 2.2 N 26 30 14 16 1009.0 - 0.0
17/05:00am 20.9 20.5 17.1 79 2.3 NNE 15 17 8 9 1009.2 - 0.0
17/04:30am 21.2 18.2 16.8 76 2.7 N 28 32 15 17 1009.0 - 0.0
17/04:00am 20.4 15.7 16.8 80 2.2 NNE 37 50 20 27 1008.3 - 0.0
17/03:30am 19.9 15.2 17.8 88 1.3 NNE 39 44 21 24 1009.3 - 0.0
17/03:14am 19.1 14.3 17.6 91 0.9 NE 39 50 21 27 1008.9 - 0.0
17/03:00am 19.2 17.3 16.7 85 1.5 NNE 22 28 12 15 1010.6 1011.0 0.0
17/02:30am 19.6 17.4 17.0 85 1.6 N 24 30 13 16 1011.7 - 0.0
17/02:00am 19.0 17.4 16.5 85 1.5 NNE 20 24 11 13 1011.5 - 0.0
17/01:30am 19.2 18.4 16.2 83 1.8 NNE 15 17 8 9 1012.2 - 0.0
17/01:00am 19.2 19.8 15.8 81 2.0 WNW 7 11 4 6 1012.6 - 0.0
17/12:30am 19.4 20.1 16.2 82 1.9 W 7 9 4 5 1012.3 - 0.0
17/12:00am 19.9 19.7 16.8 82 1.9 SW 13 15 7 8 1012.6 1012.7 0.0
 
Date/Time
EDT
Temp
°C
App
Temp
°C
Dew
Point
°C
Rel
Hum
%
Delta-T
°C
Wind Press
QNH
hPa
Press
MSL
hPa
Rain since
9am
mm
Dir  Spd
km/h
Gust
km/h
Spd
kts
Gust
kts
16/11:30pm 19.9 18.8 17.4 85 1.5 SW 19 20 10 11 1013.3 - 0.0
16/11:00pm 19.9 17.8 18.1 89 1.1 SW 26 30 14 16 1014.2 - 0.0
16/10:30pm 19.9 17.1 18.3 90 1.0 SW 30 33 16 18 1014.5 - 0.0
16/10:00pm 20.3 17.1 18.2 88 1.3 SSW 32 35 17 19 1014.7 - 0.0
16/09:30pm 20.4 19.4 18.8 90 1.0 WSW 22 28 12 15 1014.5 - 0.0
16/09:00pm 20.3 21.4 18.9 92 0.9 S 11 15 6 8 1012.8 1012.5 0.0
16/08:30pm 20.5 19.5 18.9 90 1.0 SSW 22 28 12 15 1013.2 - 0.0
16/08:00pm 20.9 18.0 19.2 90 1.1 SW 33 39 18 21 1013.9 - 0.0
16/07:30pm 21.2 18.2 19.0 87 1.4 SW 33 41 18 22 1013.2 - 0.0
16/07:00pm 21.0 19.3 18.9 88 1.3 WSW 26 32 14 17 1012.7 - 0.0
16/06:30pm 21.8 19.9 19.4 86 1.5 SW 28 30 15 16 1011.4 - 0.0
16/06:00pm 22.4 22.2 19.4 83 1.9 W 19 20 10 11 1011.1 - 0.0
16/05:30pm 22.7 23.4 19.6 82 2.0 WSW 15 17 8 9 1010.0 - 0.0
16/05:00pm 23.0 23.7 19.6 81 2.2 WSW 15 17 8 9 1010.1 - 0.0
16/04:30pm 23.1 23.6 19.3 79 2.4 WSW 15 17 8 9 1010.1 - 0.0
16/04:00pm 23.4 23.6 19.3 78 2.6 W 17 19 9 10 1010.3 - 0.0

Other Formats:

Comma delimited format used in spreadsheet applications
http://www.bom.gov.au/fwo/IDV60801/IDV60801.94933.axf

JavaScript Object Notation format (JSON) in row-major order
http://www.bom.gov.au/fwo/IDV60801/IDV60801.94933.json